createdAt,value
2023-04-26T00:00:43.544Z,1009.52
2023-04-26T00:01:43.531Z,1009.46
2023-04-26T00:02:43.660Z,1009.55
2023-04-26T00:03:43.726Z,1009.47
2023-04-26T00:04:43.826Z,1009.49
2023-04-26T00:05:43.551Z,1009.53
2023-04-26T00:06:43.476Z,1009.53
2023-04-26T00:07:43.459Z,1009.48
2023-04-26T00:08:43.448Z,1009.53
2023-04-26T00:09:43.435Z,1009.55
2023-04-26T00:10:43.437Z,1009.46
2023-04-26T00:11:43.410Z,1009.54
2023-04-26T00:12:43.399Z,1009.51
2023-04-26T00:13:43.388Z,1009.56
2023-04-26T00:14:43.388Z,1009.54
2023-04-26T00:15:43.364Z,1009.51
2023-04-26T00:16:43.479Z,1009.53
2023-04-26T00:17:43.372Z,1009.55
2023-04-26T00:18:43.333Z,1009.50
2023-04-26T00:19:43.316Z,1009.52
2023-04-26T00:20:43.307Z,1009.51
2023-04-26T00:21:43.297Z,1009.50
2023-04-26T00:22:43.293Z,1009.51
2023-04-26T00:23:43.280Z,1009.53
2023-04-26T00:24:43.329Z,1009.51
2023-04-26T00:25:43.251Z,1009.60
2023-04-26T00:26:43.244Z,1009.58
2023-04-26T00:27:43.249Z,1009.59
2023-04-26T00:28:43.223Z,1009.57
2023-04-26T00:29:43.206Z,1009.58
2023-04-26T00:30:43.194Z,1009.57
2023-04-26T00:31:43.236Z,1009.57
2023-04-26T00:32:43.235Z,1009.54
2023-04-26T00:33:43.149Z,1009.56
2023-04-26T00:34:43.142Z,1009.54
2023-04-26T00:35:43.134Z,1009.54
2023-04-26T00:36:43.122Z,1009.54
2023-04-26T00:37:43.105Z,1009.56
2023-04-26T00:38:43.090Z,1009.60
2023-04-26T00:39:43.087Z,1009.55
2023-04-26T00:40:43.082Z,1009.56
2023-04-26T00:41:43.066Z,1009.56
2023-04-26T00:42:43.044Z,1009.59
2023-04-26T00:43:43.038Z,1009.59
2023-04-26T00:44:43.023Z,1009.58
2023-04-26T00:45:43.034Z,1009.53
2023-04-26T00:46:43.005Z,1009.55
2023-04-26T00:47:43.001Z,1009.49
2023-04-26T00:48:42.978Z,1009.57
2023-04-26T00:49:43.052Z,1009.55
2023-04-26T00:50:42.951Z,1009.55
2023-04-26T00:51:42.934Z,1009.55
2023-04-26T00:52:42.935Z,1009.55
2023-04-26T00:53:42.915Z,1009.54
2023-04-26T00:54:42.907Z,1009.56
2023-04-26T00:55:42.934Z,1009.56
2023-04-26T00:56:42.883Z,1009.52
2023-04-26T00:57:42.870Z,1009.52
2023-04-26T00:58:42.858Z,1009.55
2023-04-26T00:59:42.852Z,1009.52
2023-04-26T01:00:42.870Z,1009.49
2023-04-26T01:01:42.910Z,1009.50
2023-04-26T01:02:42.875Z,1009.56
2023-04-26T01:03:43.054Z,1009.53
2023-04-26T01:04:42.785Z,1009.55
2023-04-26T01:05:42.772Z,1009.57
2023-04-26T01:06:42.761Z,1009.55
2023-04-26T01:07:42.756Z,1009.59
2023-04-26T01:08:42.738Z,1009.58
2023-04-26T01:09:42.726Z,1009.60
2023-04-26T01:10:42.714Z,1009.63
2023-04-26T01:11:42.707Z,1009.65
2023-04-26T01:12:42.694Z,1009.66
2023-04-26T01:13:42.678Z,1009.66
2023-04-26T01:14:42.663Z,1009.57
2023-04-26T01:15:42.664Z,1009.62
2023-04-26T01:16:42.665Z,1009.64
2023-04-26T01:17:42.654Z,1009.65
2023-04-26T01:18:42.618Z,1009.69
2023-04-26T01:19:42.601Z,1009.70
2023-04-26T01:20:42.596Z,1009.66
2023-04-26T01:21:42.586Z,1009.72
2023-04-26T01:22:42.581Z,1009.71
2023-04-26T01:23:42.562Z,1009.69
2023-04-26T01:24:42.554Z,1009.68
2023-04-26T01:25:42.534Z,1009.70
2023-04-26T01:26:42.518Z,1009.67
2023-04-26T01:27:42.506Z,1009.67
2023-04-26T01:28:42.509Z,1009.66
2023-04-26T01:29:42.484Z,1009.71
2023-04-26T01:30:42.484Z,1009.77
2023-04-26T01:31:42.465Z,1009.76
2023-04-26T01:32:42.479Z,1009.75
2023-04-26T01:33:42.439Z,1009.77
2023-04-26T01:34:42.420Z,1009.78
2023-04-26T01:35:42.409Z,1009.76
2023-04-26T01:36:42.404Z,1009.75
2023-04-26T01:37:42.383Z,1009.81
2023-04-26T01:38:42.373Z,1009.81
2023-04-26T01:39:42.366Z,1009.81
2023-04-26T01:40:42.347Z,1009.81
2023-04-26T01:41:42.343Z,1009.85
2023-04-26T01:42:42.333Z,1009.88
2023-04-26T01:43:42.312Z,1009.87
2023-04-26T01:44:42.299Z,1009.84
2023-04-26T01:45:42.277Z,1009.83
2023-04-26T01:46:42.305Z,1009.79
2023-04-26T01:47:42.323Z,1009.85
2023-04-26T01:48:42.249Z,1009.81
2023-04-26T01:49:42.240Z,1009.82
2023-04-26T01:50:42.231Z,1009.86
2023-04-26T01:51:42.213Z,1009.86
2023-04-26T01:52:42.196Z,1009.82
2023-04-26T01:53:42.189Z,1009.87
2023-04-26T01:54:42.186Z,1009.91
2023-04-26T01:55:42.206Z,1009.89
2023-04-26T01:56:42.160Z,1009.89
2023-04-26T01:57:42.140Z,1009.92
2023-04-26T01:58:42.124Z,1009.87
2023-04-26T01:59:42.120Z,1009.90
2023-04-26T02:00:42.102Z,1009.91
2023-04-26T02:01:42.138Z,1009.92
2023-04-26T02:02:42.195Z,1009.90
2023-04-26T02:03:42.193Z,1009.89
2023-04-26T02:04:42.159Z,1009.92
2023-04-26T02:05:42.042Z,1009.87
2023-04-26T02:06:42.029Z,1009.85
2023-04-26T02:07:42.029Z,1009.90
2023-04-26T02:08:42.003Z,1009.90
2023-04-26T02:09:41.991Z,1009.93
2023-04-26T02:10:41.988Z,1009.92
2023-04-26T02:11:41.973Z,1009.91
2023-04-26T02:12:41.953Z,1009.95
2023-04-26T02:13:41.948Z,1009.86
2023-04-26T02:14:41.932Z,1009.90
2023-04-26T02:15:41.987Z,1009.90
2023-04-26T02:16:41.923Z,1009.90
2023-04-26T02:17:41.935Z,1009.89
2023-04-26T02:18:41.898Z,1009.92
2023-04-26T02:19:41.871Z,1009.90
2023-04-26T02:20:41.859Z,1009.87
2023-04-26T02:21:41.846Z,1009.88
2023-04-26T02:22:41.856Z,1009.87
2023-04-26T02:23:41.823Z,1009.89
2023-04-26T02:24:41.808Z,1009.86
2023-04-26T02:25:41.800Z,1009.88
2023-04-26T02:26:41.785Z,1009.88
2023-04-26T02:27:41.781Z,1009.89
2023-04-26T02:28:41.759Z,1009.87
2023-04-26T02:29:44.749Z,1009.87
2023-04-26T02:30:41.751Z,1009.89
2023-04-26T02:31:41.752Z,1009.83
2023-04-26T02:32:41.747Z,1009.83
2023-04-26T02:33:41.750Z,1009.84
2023-04-26T02:34:41.703Z,1009.85
2023-04-26T02:35:41.688Z,1009.81
2023-04-26T02:36:41.804Z,1009.86
2023-04-26T02:37:41.655Z,1009.83
2023-04-26T02:38:41.662Z,1009.84
2023-04-26T02:39:41.623Z,1009.85
2023-04-26T02:40:41.614Z,1009.85
2023-04-26T02:41:41.614Z,1009.87
2023-04-26T02:42:41.587Z,1009.83
2023-04-26T02:43:41.649Z,1009.82
2023-04-26T02:44:41.569Z,1009.88
2023-04-26T02:45:41.552Z,1009.87
2023-04-26T02:46:41.661Z,1009.87
2023-04-26T02:47:41.550Z,1009.82
2023-04-26T02:48:41.512Z,1009.84
2023-04-26T02:49:41.513Z,1009.83
2023-04-26T02:50:41.491Z,1009.82
2023-04-26T02:51:41.496Z,1009.83
2023-04-26T02:52:41.460Z,1009.86
2023-04-26T02:53:41.463Z,1009.85
2023-04-26T02:54:41.428Z,1009.82
2023-04-26T02:55:41.419Z,1009.83
2023-04-26T02:56:41.410Z,1009.86
2023-04-26T02:57:41.402Z,1009.85
2023-04-26T02:58:41.382Z,1009.83
2023-04-26T02:59:41.373Z,1009.89
2023-04-26T03:00:41.397Z,1009.89
2023-04-26T03:01:41.348Z,1009.85
2023-04-26T03:02:41.506Z,1009.85
2023-04-26T03:03:41.453Z,1009.85
2023-04-26T03:04:41.303Z,1009.85
2023-04-26T03:05:41.297Z,1009.86
2023-04-26T03:06:41.284Z,1009.86
2023-04-26T03:07:41.269Z,1009.90
2023-04-26T03:08:41.257Z,1009.85
2023-04-26T03:09:41.282Z,1009.87
2023-04-26T03:10:41.234Z,1009.85
2023-04-26T03:11:41.244Z,1009.89
2023-04-26T03:12:41.208Z,1009.88
2023-04-26T03:13:41.199Z,1009.89
2023-04-26T03:14:41.188Z,1009.90
2023-04-26T03:15:41.176Z,1009.87
2023-04-26T03:16:41.320Z,1009.87
2023-04-26T03:17:41.181Z,1009.87
2023-04-26T03:18:41.132Z,1009.88
2023-04-26T03:19:41.131Z,1009.85
2023-04-26T03:20:41.104Z,1009.86
2023-04-26T03:21:41.117Z,1009.87
2023-04-26T03:22:41.085Z,1009.84
2023-04-26T03:23:41.073Z,1009.82
2023-04-26T03:24:41.059Z,1009.86
2023-04-26T03:25:41.052Z,1009.87
2023-04-26T03:26:41.055Z,1009.84
2023-04-26T03:27:41.022Z,1009.86
2023-04-26T03:28:41.010Z,1009.88
2023-04-26T03:29:42.849Z,1009.90
2023-04-26T03:30:40.986Z,1009.88
2023-04-26T03:31:41.114Z,1009.86
2023-04-26T03:32:41.022Z,1009.88
2023-04-26T03:33:40.955Z,1009.93
2023-04-26T03:34:40.931Z,1009.95
2023-04-26T03:35:41.042Z,1009.99
2023-04-26T03:36:40.911Z,1009.97
2023-04-26T03:37:40.895Z,1010.00
2023-04-26T03:38:40.888Z,1009.97
2023-04-26T03:39:40.870Z,1009.96
2023-04-26T03:40:40.873Z,1010.00
2023-04-26T03:41:40.853Z,1009.97
2023-04-26T03:42:40.833Z,1010.02
2023-04-26T03:43:40.821Z,1010.04
2023-04-26T03:44:40.823Z,1010.03
2023-04-26T03:45:40.803Z,1010.01
2023-04-26T03:46:40.802Z,1010.05
2023-04-26T03:47:40.812Z,1010.07
2023-04-26T03:48:40.761Z,1010.08
2023-04-26T03:49:40.750Z,1010.05
2023-04-26T03:50:40.734Z,1010.06
2023-04-26T03:51:40.733Z,1010.07
2023-04-26T03:52:40.713Z,1010.08
2023-04-26T03:53:40.699Z,1010.06
2023-04-26T03:54:40.681Z,1010.05
2023-04-26T03:55:40.681Z,1010.06
2023-04-26T03:56:40.654Z,1010.06
2023-04-26T03:57:40.644Z,1010.07
2023-04-26T03:58:40.665Z,1010.08
2023-04-26T03:59:40.624Z,1010.05
2023-04-26T04:00:40.629Z,1010.07
2023-04-26T04:01:40.600Z,1010.06
2023-04-26T04:02:40.681Z,1010.11
2023-04-26T04:03:41.367Z,1010.08
2023-04-26T04:04:40.667Z,1010.18
2023-04-26T04:05:40.610Z,1010.12
2023-04-26T04:06:40.529Z,1010.15
2023-04-26T04:07:40.518Z,1010.14
2023-04-26T04:08:40.528Z,1010.14
2023-04-26T04:09:40.503Z,1010.12
2023-04-26T04:10:40.472Z,1010.12
2023-04-26T04:11:40.467Z,1010.15
2023-04-26T04:12:40.456Z,1010.15
2023-04-26T04:13:40.445Z,1010.12
2023-04-26T04:14:40.430Z,1010.12
2023-04-26T04:15:40.433Z,1010.15
2023-04-26T04:16:40.405Z,1010.15
2023-04-26T04:17:40.439Z,1010.16
2023-04-26T04:18:40.377Z,1010.20
2023-04-26T04:19:40.414Z,1010.21
2023-04-26T04:20:40.353Z,1010.20
2023-04-26T04:21:40.341Z,1010.17
2023-04-26T04:22:40.360Z,1010.17
2023-04-26T04:23:40.312Z,1010.21
2023-04-26T04:24:40.304Z,1010.18
2023-04-26T04:25:40.291Z,1010.19
2023-04-26T04:26:40.275Z,1010.22
2023-04-26T04:27:40.261Z,1010.19
2023-04-26T04:28:40.253Z,1010.31
2023-04-26T04:29:40.239Z,1010.26
2023-04-26T04:30:40.230Z,1010.22
2023-04-26T04:31:40.378Z,1010.28
2023-04-26T04:32:40.377Z,1010.32
2023-04-26T04:33:40.187Z,1010.28
2023-04-26T04:34:40.174Z,1010.33
2023-04-26T04:35:40.165Z,1010.27
2023-04-26T04:36:40.156Z,1010.36
2023-04-26T04:37:40.140Z,1010.33
2023-04-26T04:38:40.125Z,1010.32
2023-04-26T04:39:40.115Z,1010.28
2023-04-26T04:40:40.124Z,1010.25
2023-04-26T04:41:40.099Z,1010.28
2023-04-26T04:42:40.082Z,1010.28
2023-04-26T04:43:40.067Z,1010.33
2023-04-26T04:44:40.058Z,1010.31
2023-04-26T04:45:40.041Z,1010.29
2023-04-26T04:46:40.055Z,1010.34
2023-04-26T04:47:40.111Z,1010.36
2023-04-26T04:48:40.008Z,1010.41
2023-04-26T04:49:39.991Z,1010.35
2023-04-26T04:50:39.980Z,1010.40
2023-04-26T04:51:39.964Z,1010.40
2023-04-26T04:52:39.958Z,1010.38
2023-04-26T04:53:39.945Z,1010.46
2023-04-26T04:54:39.929Z,1010.44
2023-04-26T04:55:39.935Z,1010.46
2023-04-26T04:56:39.911Z,1010.42
2023-04-26T04:57:41.422Z,1010.46
2023-04-26T04:58:39.879Z,1010.51
2023-04-26T04:59:40.398Z,1010.50
2023-04-26T05:00:39.860Z,1010.54
2023-04-26T05:01:39.884Z,1010.50
2023-04-26T05:02:39.954Z,1010.53
2023-04-26T05:03:39.923Z,1010.56
2023-04-26T05:04:39.941Z,1010.58
2023-04-26T05:05:39.806Z,1010.60
2023-04-26T05:06:39.793Z,1010.63
2023-04-26T05:07:39.787Z,1010.59
2023-04-26T05:08:39.788Z,1010.58
2023-04-26T05:09:39.760Z,1010.60
2023-04-26T05:10:39.757Z,1010.60
2023-04-26T05:11:39.743Z,1010.50
2023-04-26T05:12:39.729Z,1010.58
2023-04-26T05:13:39.719Z,1010.64
2023-04-26T05:14:39.708Z,1010.58
2023-04-26T05:15:39.695Z,1010.66
2023-04-26T05:16:39.699Z,1010.63
2023-04-26T05:17:39.715Z,1010.61
2023-04-26T05:18:39.680Z,1010.65
2023-04-26T05:19:39.654Z,1010.66
2023-04-26T05:20:39.644Z,1010.69
2023-04-26T05:21:39.637Z,1010.71
2023-04-26T05:22:39.631Z,1010.73
2023-04-26T05:23:39.613Z,1010.78
2023-04-26T05:24:39.602Z,1010.73
2023-04-26T05:25:39.628Z,1010.74
2023-04-26T05:26:39.582Z,1010.79
2023-04-26T05:27:39.574Z,1010.72
2023-04-26T05:28:39.562Z,1010.79
2023-04-26T05:29:39.574Z,1010.83
2023-04-26T05:30:39.538Z,1010.81
2023-04-26T05:31:39.572Z,1010.81
2023-04-26T05:32:39.636Z,1010.74
2023-04-26T05:33:39.519Z,1010.79
2023-04-26T05:34:39.507Z,1010.82
2023-04-26T05:35:39.494Z,1010.83
2023-04-26T05:36:39.503Z,1010.81
2023-04-26T05:37:39.476Z,1010.84
2023-04-26T05:38:39.466Z,1010.84
2023-04-26T05:39:39.509Z,1010.90
2023-04-26T05:40:39.453Z,1010.91
2023-04-26T05:41:39.449Z,1010.87
2023-04-26T05:42:39.420Z,1010.90
2023-04-26T05:43:39.416Z,1010.88
2023-04-26T05:44:39.404Z,1010.91
2023-04-26T05:45:39.454Z,1010.89
2023-04-26T05:46:39.395Z,1010.93
2023-04-26T05:47:39.489Z,1010.96
2023-04-26T05:48:39.370Z,1011.00
2023-04-26T05:49:39.369Z,1010.92
2023-04-26T05:50:40.095Z,1010.92
2023-04-26T05:51:39.385Z,1010.96
2023-04-26T05:52:39.337Z,1010.93
2023-04-26T05:53:39.330Z,1010.92
2023-04-26T05:54:39.329Z,1010.97
2023-04-26T05:55:39.311Z,1010.90
2023-04-26T05:56:39.294Z,1010.96
2023-04-26T05:57:39.336Z,1010.94
2023-04-26T05:58:39.276Z,1010.91
2023-04-26T05:59:39.274Z,1010.97
2023-04-26T06:00:39.356Z,1010.94
2023-04-26T06:01:39.286Z,1010.99
2023-04-26T06:02:39.391Z,1010.99
2023-04-26T06:03:39.429Z,1011.02
2023-04-26T06:04:39.400Z,1011.05
2023-04-26T06:05:39.327Z,1010.98
2023-04-26T06:06:39.972Z,1011.04
2023-04-26T06:07:39.208Z,1011.05
2023-04-26T06:08:39.244Z,1010.98
2023-04-26T06:09:39.191Z,1011.03
2023-04-26T06:10:39.184Z,1010.99
2023-04-26T06:11:39.175Z,1011.03
2023-04-26T06:12:39.172Z,1011.08
2023-04-26T06:13:39.158Z,1011.07
2023-04-26T06:14:39.167Z,1011.08
2023-04-26T06:15:39.154Z,1011.08
2023-04-26T06:16:39.985Z,1011.13
2023-04-26T06:17:39.172Z,1011.10
2023-04-26T06:18:39.114Z,1011.09
2023-04-26T06:19:39.128Z,1011.12
2023-04-26T06:20:39.150Z,1011.16
2023-04-26T06:21:39.209Z,1011.12
2023-04-26T06:22:39.093Z,1011.14
2023-04-26T06:23:39.088Z,1011.11
2023-04-26T06:24:39.083Z,1011.14
2023-04-26T06:25:39.075Z,1011.15
2023-04-26T06:26:39.072Z,1011.18
2023-04-26T06:27:39.088Z,1011.11
2023-04-26T06:28:39.957Z,1011.16
2023-04-26T06:29:39.040Z,1011.17
2023-04-26T06:30:39.070Z,1011.14
2023-04-26T06:31:39.166Z,1011.19
2023-04-26T06:32:39.055Z,1011.13
2023-04-26T06:33:39.018Z,1011.16
2023-04-26T06:34:39.007Z,1011.15
2023-04-26T06:35:39.270Z,1011.11
2023-04-26T06:36:39.023Z,1011.14
2023-04-26T06:37:38.984Z,1011.14
2023-04-26T06:38:39.008Z,1011.18
2023-04-26T06:39:39.027Z,1011.18
2023-04-26T06:40:39.147Z,1011.15
2023-04-26T06:41:38.966Z,1011.24
2023-04-26T06:42:38.958Z,1011.19
2023-04-26T06:43:38.952Z,1011.18
2023-04-26T06:44:38.946Z,1011.29
2023-04-26T06:45:40.529Z,1011.20
2023-04-26T06:46:39.085Z,1011.24
2023-04-26T06:47:38.960Z,1011.21
2023-04-26T06:48:38.925Z,1011.15
2023-04-26T06:49:38.920Z,1011.18
2023-04-26T06:50:38.910Z,1011.19
2023-04-26T06:51:38.913Z,1011.20
2023-04-26T06:52:38.901Z,1011.27
2023-04-26T06:53:38.889Z,1011.24
2023-04-26T06:54:46.055Z,1011.19
2023-04-26T06:55:38.880Z,1011.22
2023-04-26T06:56:38.870Z,1011.18
2023-04-26T06:57:38.876Z,1011.16
2023-04-26T06:58:38.859Z,1011.18
2023-04-26T06:59:38.946Z,1011.23
2023-04-26T07:00:38.844Z,1011.20
2023-04-26T07:01:38.879Z,1011.21
2023-04-26T07:02:38.960Z,1011.22
2023-04-26T07:03:39.019Z,1011.07
2023-04-26T07:04:39.022Z,1011.16
2023-04-26T07:05:38.832Z,1011.19
2023-04-26T07:06:38.818Z,1011.16
2023-04-26T07:07:38.812Z,1011.19
2023-04-26T07:08:38.799Z,1011.15
2023-04-26T07:09:38.797Z,1011.19
2023-04-26T07:10:38.808Z,1011.21
2023-04-26T07:11:38.784Z,1011.22
2023-04-26T07:12:38.777Z,1011.21
2023-04-26T07:13:38.769Z,1011.24
2023-04-26T07:14:39.607Z,1011.22
2023-04-26T07:15:38.758Z,1011.24
2023-04-26T07:16:38.865Z,1011.24
2023-04-26T07:17:38.771Z,1011.24
2023-04-26T07:18:38.739Z,1011.26
2023-04-26T07:19:38.743Z,1011.28
2023-04-26T07:20:38.731Z,1011.31
2023-04-26T07:21:38.733Z,1011.29
2023-04-26T07:22:38.714Z,1011.32
2023-04-26T07:23:38.713Z,1011.31
2023-04-26T07:24:38.708Z,1011.32
2023-04-26T07:25:38.706Z,1011.31
2023-04-26T07:26:38.701Z,1011.36
2023-04-26T07:27:38.699Z,1011.37
2023-04-26T07:28:38.696Z,1011.23
2023-04-26T07:29:38.685Z,1011.31
2023-04-26T07:30:38.683Z,1011.28
2023-04-26T07:31:38.852Z,1011.26
2023-04-26T07:32:38.741Z,1011.26
2023-04-26T07:33:38.837Z,1011.29
2023-04-26T07:34:38.683Z,1011.29
2023-04-26T07:35:38.664Z,1011.31
2023-04-26T07:36:38.657Z,1011.32
2023-04-26T07:37:38.651Z,1011.39
2023-04-26T07:38:38.646Z,1011.52
2023-04-26T07:39:38.634Z,1011.46
2023-04-26T07:40:38.639Z,1011.39
2023-04-26T07:41:38.649Z,1011.35
2023-04-26T07:42:38.618Z,1011.42
2023-04-26T07:43:38.646Z,1011.43
2023-04-26T07:44:38.614Z,1011.41
2023-04-26T07:45:38.653Z,1011.53
2023-04-26T07:46:38.655Z,1011.45
2023-04-26T07:47:38.823Z,1011.45
2023-04-26T07:48:38.591Z,1011.39
2023-04-26T07:49:38.604Z,1011.42
2023-04-26T07:50:38.585Z,1011.49
2023-04-26T07:51:38.577Z,1011.50
2023-04-26T07:52:38.573Z,1011.43
2023-04-26T07:53:38.559Z,1011.42
2023-04-26T07:54:38.565Z,1011.54
2023-04-26T07:55:38.588Z,1011.47
2023-04-26T07:56:38.574Z,1011.44
2023-04-26T07:57:38.553Z,1011.43
2023-04-26T07:58:38.573Z,1011.39
2023-04-26T07:59:38.524Z,1011.41
2023-04-26T08:00:38.548Z,1011.33
2023-04-26T08:01:38.534Z,1011.37
2023-04-26T08:02:45.091Z,1011.40
2023-04-26T08:03:38.705Z,1011.49
2023-04-26T08:04:38.575Z,1011.53
2023-04-26T08:05:39.650Z,1011.53
2023-04-26T08:06:38.491Z,1011.47
2023-04-26T08:07:38.505Z,1011.53
2023-04-26T08:08:38.572Z,1011.53
2023-04-26T08:09:38.458Z,1011.52
2023-04-26T08:10:38.452Z,1011.48
2023-04-26T08:11:38.509Z,1011.52
2023-04-26T08:12:38.438Z,1011.50
2023-04-26T08:13:38.429Z,1011.49
2023-04-26T08:14:38.435Z,1011.53
2023-04-26T08:15:38.429Z,1011.47
2023-04-26T08:16:38.478Z,1011.53
2023-04-26T08:17:38.469Z,1011.55
2023-04-26T08:18:38.429Z,1011.50
2023-04-26T08:19:38.390Z,1011.54
2023-04-26T08:20:38.375Z,1011.57
2023-04-26T08:21:38.363Z,1011.55
2023-04-26T08:22:38.387Z,1011.55
2023-04-26T08:23:38.365Z,1011.56
2023-04-26T08:24:38.350Z,1011.53
2023-04-26T08:25:38.331Z,1011.53
2023-04-26T08:26:38.330Z,1011.51
2023-04-26T08:27:38.318Z,1011.56
2023-04-26T08:28:38.323Z,1011.51
2023-04-26T08:29:38.306Z,1011.58
2023-04-26T08:30:38.323Z,1011.57
2023-04-26T08:31:38.465Z,1011.56
2023-04-26T08:32:38.356Z,1011.55
2023-04-26T08:33:38.270Z,1011.51
2023-04-26T08:34:38.260Z,1011.51
2023-04-26T08:35:38.325Z,1011.55
2023-04-26T08:36:38.300Z,1011.47
2023-04-26T08:37:38.257Z,1011.56
2023-04-26T08:38:38.226Z,1011.51
2023-04-26T08:39:38.222Z,1011.62
2023-04-26T08:40:38.215Z,1011.60
2023-04-26T08:41:38.215Z,1011.68
2023-04-26T08:42:38.197Z,1011.66
2023-04-26T08:43:38.197Z,1011.67
2023-04-26T08:44:38.189Z,1011.65
2023-04-26T08:45:38.185Z,1011.64
2023-04-26T08:46:38.255Z,1011.66
2023-04-26T08:47:38.204Z,1011.68
2023-04-26T08:48:38.159Z,1011.64
2023-04-26T08:49:38.145Z,1011.65
2023-04-26T08:50:38.154Z,1011.62
2023-04-26T08:51:38.235Z,1011.60
2023-04-26T08:52:38.126Z,1011.58
2023-04-26T08:53:38.114Z,1011.65
2023-04-26T08:54:38.100Z,1011.62
2023-04-26T08:55:38.105Z,1011.62
2023-04-26T08:56:38.086Z,1011.63
2023-04-26T08:57:38.088Z,1011.61
2023-04-26T08:58:38.078Z,1011.60
2023-04-26T08:59:38.076Z,1011.61
2023-04-26T09:00:38.053Z,1011.69
2023-04-26T09:01:38.100Z,1011.65
2023-04-26T09:02:38.249Z,1011.72
2023-04-26T09:03:38.211Z,1011.73
2023-04-26T09:04:38.458Z,1011.68
2023-04-26T09:05:38.014Z,1011.67
2023-04-26T09:06:38.003Z,1011.65
2023-04-26T09:07:38.037Z,1011.68
2023-04-26T09:08:37.989Z,1011.72
2023-04-26T09:09:37.999Z,1011.77
2023-04-26T09:10:37.965Z,1011.68
2023-04-26T09:11:37.956Z,1011.76
2023-04-26T09:12:37.945Z,1011.72
2023-04-26T09:13:37.948Z,1011.77
2023-04-26T09:14:37.936Z,1011.73
2023-04-26T09:15:37.940Z,1011.73
2023-04-26T09:16:38.073Z,1011.75
2023-04-26T09:17:37.973Z,1011.68
2023-04-26T09:18:37.896Z,1011.69
2023-04-26T09:19:37.945Z,1011.71
2023-04-26T09:20:37.877Z,1011.68
2023-04-26T09:21:37.871Z,1011.65
2023-04-26T09:22:37.872Z,1011.68
2023-04-26T09:23:37.865Z,1011.68
2023-04-26T09:24:37.846Z,1011.68
2023-04-26T09:25:37.842Z,1011.71
2023-04-26T09:26:37.831Z,1011.74
2023-04-26T09:27:37.827Z,1011.70
2023-04-26T09:28:37.816Z,1011.73
2023-04-26T09:29:37.896Z,1011.73
2023-04-26T09:30:37.794Z,1011.66
2023-04-26T09:31:37.829Z,1011.71
2023-04-26T09:32:37.888Z,1011.70
2023-04-26T09:33:37.763Z,1011.72
2023-04-26T09:34:37.758Z,1011.67
2023-04-26T09:35:37.761Z,1011.69
2023-04-26T09:36:37.760Z,1011.72
2023-04-26T09:37:44.275Z,1011.72
2023-04-26T09:38:37.723Z,1011.71
2023-04-26T09:39:37.791Z,1011.65
2023-04-26T09:40:37.719Z,1011.63
2023-04-26T09:41:37.695Z,1011.68
2023-04-26T09:42:37.684Z,1011.64
2023-04-26T09:43:37.681Z,1011.65
2023-04-26T09:44:37.667Z,1011.64
2023-04-26T09:45:37.658Z,1011.67
2023-04-26T09:46:37.692Z,1011.67
2023-04-26T09:47:37.653Z,1011.65
2023-04-26T09:48:37.633Z,1011.66
2023-04-26T09:49:37.625Z,1011.68
2023-04-26T09:50:37.617Z,1011.66
2023-04-26T09:51:37.610Z,1011.71
2023-04-26T09:52:37.596Z,1011.66
2023-04-26T09:53:37.597Z,1011.69
2023-04-26T09:54:37.577Z,1011.74
2023-04-26T09:55:37.569Z,1011.65
2023-04-26T09:56:37.565Z,1011.71
2023-04-26T09:57:37.550Z,1011.73
2023-04-26T09:58:37.557Z,1011.62
2023-04-26T09:59:37.532Z,1011.67
2023-04-26T10:00:37.613Z,1011.61
2023-04-26T10:01:37.677Z,1011.59
2023-04-26T10:02:37.596Z,1011.56
2023-04-26T10:03:37.963Z,1011.61
2023-04-26T10:04:37.530Z,1011.61
2023-04-26T10:05:37.481Z,1011.63
2023-04-26T10:06:37.481Z,1011.69
2023-04-26T10:07:37.462Z,1011.63
2023-04-26T10:08:37.453Z,1011.69
2023-04-26T10:09:37.448Z,1011.67
2023-04-26T10:10:37.450Z,1011.61
2023-04-26T10:11:38.892Z,1011.69
2023-04-26T10:12:37.418Z,1011.72
2023-04-26T10:13:37.421Z,1011.67
2023-04-26T10:14:37.403Z,1011.70
2023-04-26T10:15:37.396Z,1011.71
2023-04-26T10:16:37.445Z,1011.72
2023-04-26T10:17:37.402Z,1011.75
2023-04-26T10:18:37.374Z,1011.66
2023-04-26T10:19:37.360Z,1011.66
2023-04-26T10:20:37.350Z,1011.69
2023-04-26T10:21:37.345Z,1011.66
2023-04-26T10:22:37.336Z,1011.73
2023-04-26T10:23:37.326Z,1011.69
2023-04-26T10:24:37.325Z,1011.77
2023-04-26T10:25:37.307Z,1011.80
2023-04-26T10:26:37.298Z,1011.81
2023-04-26T10:27:37.297Z,1011.79
2023-04-26T10:28:37.290Z,1011.78
2023-04-26T10:29:37.288Z,1011.78
2023-04-26T10:30:37.266Z,1011.75
2023-04-26T10:31:37.311Z,1011.78
2023-04-26T10:32:37.290Z,1011.78
2023-04-26T10:33:37.262Z,1011.81
2023-04-26T10:34:37.285Z,1011.83
2023-04-26T10:35:37.231Z,1011.84
2023-04-26T10:36:37.221Z,1011.87
2023-04-26T10:37:37.212Z,1011.82
2023-04-26T10:38:37.206Z,1011.80
2023-04-26T10:39:37.196Z,1011.81
2023-04-26T10:40:37.189Z,1011.70
2023-04-26T10:41:37.181Z,1011.73
2023-04-26T10:42:37.172Z,1011.76
2023-04-26T10:43:37.173Z,1011.73
2023-04-26T10:44:37.156Z,1011.72
2023-04-26T10:45:37.174Z,1011.63
2023-04-26T10:46:37.273Z,1011.68
2023-04-26T10:47:37.409Z,1011.76
2023-04-26T10:48:37.129Z,1011.74
2023-04-26T10:49:37.126Z,1011.74
2023-04-26T10:50:37.112Z,1011.75
2023-04-26T10:51:37.108Z,1011.63
2023-04-26T10:52:37.118Z,1011.69
2023-04-26T10:53:37.095Z,1011.72
2023-04-26T10:54:37.082Z,1011.76
2023-04-26T10:55:37.099Z,1011.83
2023-04-26T10:56:37.065Z,1011.80
2023-04-26T10:57:37.057Z,1011.73
2023-04-26T10:58:37.048Z,1011.77
2023-04-26T10:59:51.099Z,1011.82
2023-04-26T11:00:37.033Z,1011.75
2023-04-26T11:01:37.072Z,1011.77
2023-04-26T11:02:37.071Z,1011.74
2023-04-26T11:03:37.233Z,1011.77
2023-04-26T11:04:37.054Z,1011.82
2023-04-26T11:05:36.997Z,1011.84
2023-04-26T11:06:36.988Z,1011.78
2023-04-26T11:07:36.980Z,1011.76
2023-04-26T11:08:37.004Z,1011.79
2023-04-26T11:09:36.979Z,1011.78
2023-04-26T11:10:36.991Z,1011.79
2023-04-26T11:11:36.944Z,1011.78
2023-04-26T11:12:36.938Z,1011.75
2023-04-26T11:13:36.966Z,1011.74
2023-04-26T11:14:36.927Z,1011.81
2023-04-26T11:15:36.970Z,1011.79
2023-04-26T11:16:36.999Z,1011.80
2023-04-26T11:17:36.917Z,1011.77
2023-04-26T11:18:36.901Z,1011.80
2023-04-26T11:19:36.911Z,1011.65
2023-04-26T11:20:36.881Z,1011.83
2023-04-26T11:21:36.871Z,1011.71
2023-04-26T11:22:36.867Z,1011.73
2023-04-26T11:23:36.853Z,1011.73
2023-04-26T11:24:36.946Z,1011.66
2023-04-26T11:25:36.848Z,1011.73
2023-04-26T11:26:36.837Z,1011.71
2023-04-26T11:27:36.847Z,1011.74
2023-04-26T11:28:36.816Z,1011.80
2023-04-26T11:29:36.831Z,1011.75
2023-04-26T11:30:36.808Z,1011.83
2023-04-26T11:31:36.862Z,1011.71
2023-04-26T11:32:36.841Z,1011.90
2023-04-26T11:33:36.794Z,1011.78
2023-04-26T11:34:36.808Z,1011.82
2023-04-26T11:35:36.765Z,1011.82
2023-04-26T11:36:36.774Z,1011.70
2023-04-26T11:37:36.750Z,1011.85
2023-04-26T11:38:36.736Z,1011.74
2023-04-26T11:39:36.741Z,1011.76
2023-04-26T11:40:36.733Z,1011.77
2023-04-26T11:41:36.739Z,1011.79
2023-04-26T11:42:36.713Z,1011.66
2023-04-26T11:43:36.828Z,1011.65
2023-04-26T11:44:36.697Z,1011.78
2023-04-26T11:45:36.763Z,1011.73
2023-04-26T11:46:36.715Z,1011.72
2023-04-26T11:47:36.817Z,1011.79
2023-04-26T11:48:36.681Z,1011.74
2023-04-26T11:49:36.659Z,1011.81
2023-04-26T11:50:36.674Z,1011.79
2023-04-26T11:51:36.656Z,1011.78
2023-04-26T11:52:36.648Z,1011.68
2023-04-26T11:53:36.634Z,1011.81
2023-04-26T11:54:36.637Z,1011.81
2023-04-26T11:55:36.617Z,1011.80
2023-04-26T11:56:36.606Z,1011.86
2023-04-26T11:57:36.604Z,1011.79
2023-04-26T11:58:36.593Z,1011.79
2023-04-26T11:59:36.591Z,1011.75
2023-04-26T12:00:36.585Z,1011.78
2023-04-26T12:01:36.578Z,1011.82
2023-04-26T12:02:36.744Z,1011.62
2023-04-26T12:03:36.698Z,1011.91
2023-04-26T12:04:36.641Z,1011.87
2023-04-26T12:05:36.762Z,1011.86